Maria — SV7156 — position and weather

sailwx.info

Track history (hours):
 
Tides and Currents Weather Stations Pressure Air Temp Water Temp Dewpoint Dewpoint Depression Visibility Wind Speed Wind Dir Waves Ship Positions

Maria

Last reported at 2015-Aug-30 22:34 UTC. Time now 2015-Aug-30 22:39 UTC.
Position N 37°57' E 023°35'.

Length 74 m; draft 4.5 m.

Type: Ship. MMSI: 237493000.

Date/timePositionNaut miles runAvg speedWind from/ knotsBaromVisibWave heightAir tempDewpointWater temp
2015-Aug-30 22:34N 37°57' E 023°35'0 0.0
2015-Aug-30 21:34N 37°57' E 023°35'1 0.6
2015-Aug-30 20:33N 37°58' E 023°35'0 0.0
2015-Aug-29 07:33N 37°58' E 023°35'0 0.0
2015-Aug-29 06:34N 37°58' E 023°35'0 0.4
2015-Aug-29 05:33N 37°57' E 023°34'4 4.4
2015-Aug-29 04:33N 38°02' E 023°36'0 0.1
2015-Aug-29 03:33N 38°02' E 023°36'0 0.0
2015-Aug-29 02:33N 38°02' E 023°36'0 0.0
2015-Aug-29 01:33N 38°02' E 023°36'0 0.0
2015-Aug-29 00:33N 38°02' E 023°36'0 0.0
2015-Aug-28 23:33N 38°02' E 023°36'0 0.0
2015-Aug-28 22:33N 38°02' E 023°36'0 0.0
2015-Aug-28 21:33N 38°02' E 023°36'1 0.9
2015-Aug-28 20:33N 38°01' E 023°35'0 0.0
2015-Aug-28 19:31N 38°01' E 023°35'0 0.0
2015-Aug-28 18:33N 38°01' E 023°35'0 0.0
2015-Aug-28 17:33N 38°01' E 023°35'0 0.0
2015-Aug-28 16:33N 38°01' E 023°35'4 4.3
2015-Aug-28 15:33N 37°57' E 023°34'7 6.6
2015-Aug-28 14:34N 37°52' E 023°30'0 0.2
2015-Aug-28 13:33N 37°51' E 023°30'0 0.0
2015-Aug-28 12:34N 37°51' E 023°30'0 0.0
2015-Aug-28 11:33N 37°51' E 023°30'0 0.0
2015-Aug-28 10:33N 37°51' E 023°30'0 0.0
2015-Aug-28 09:33N 37°51' E 023°30'0 0.0
2015-Aug-28 08:34N 37°51' E 023°30'0 0.0
2015-Aug-28 07:34N 37°51' E 023°30'0 0.0
2015-Aug-28 06:34N 37°51' E 023°30'0 0.0
2015-Aug-28 05:33N 37°51' E 023°30'0 0.0
2015-Aug-28 04:34N 37°51' E 023°30'4 4.1
2015-Aug-28 03:33N 37°55' E 023°33'3 0.1
2015-Aug-26 16:33N 37°58' E 023°35'3 3.0
2015-Aug-26 15:33N 37°56' E 023°38'0 0.0
2015-Aug-26 14:33N 37°56' E 023°38'0 0.0
2015-Aug-26 13:33N 37°56' E 023°38'3 3.0
2015-Aug-26 12:33N 37°58' E 023°35'0 0.0
2015-Aug-26 11:33N 37°58' E 023°35'3 3.4
2015-Aug-26 10:33N 38°01' E 023°34'1 1.1
2015-Aug-26 09:33N 38°02' E 023°36'0 0.0
2015-Aug-26 08:33N 38°02' E 023°36'0 0.0
2015-Aug-26 05:33N 38°02' E 023°36'1 0.5
2015-Aug-26 04:33N 38°02' E 023°35'0 0.5
2015-Aug-26 03:33N 38°01' E 023°34'0 0.0
2015-Aug-26 02:33N 38°01' E 023°34'0 0.0
2015-Aug-26 01:33N 38°01' E 023°34'0 0.0
2015-Aug-26 00:33N 38°01' E 023°34'0 0.0
2015-Aug-25 23:33N 38°01' E 023°34'0 0.0
2015-Aug-25 22:33N 38°01' E 023°35'0 0.0
2015-Aug-25 21:34N 38°01' E 023°35'0 0.0
2015-Aug-25 20:33N 38°01' E 023°35'0 0.0
2015-Aug-25 19:33N 38°01' E 023°35'0 0.0
2015-Aug-25 18:33N 38°01' E 023°34'4 4.2
2015-Aug-25 17:33N 37°57' E 023°34'1 0.1
2015-Aug-25 12:14N 37°58' E 023°35'  
Track history (hours):
 
Tides and Currents Weather Stations Pressure Air Temp Water Temp Dewpoint Dewpoint Depression Visibility Wind Speed Wind Dir Waves Ship Positions

Maria

Last reported at 2015-Aug-30 22:34 UTC. Time now 2015-Aug-30 22:39 UTC.
Position N 37°57' E 023°35'.

Length 74 m; draft 4.5 m.

Type: Ship. MMSI: 237493000.

Date/timePositionNaut miles runAvg speedWind from/ knotsBaromVisibWave heightAir tempDewpointWater temp
2015-Aug-30 22:34N 37°57' E 023°35'0 0.0
2015-Aug-30 21:34N 37°57' E 023°35'1 0.6
2015-Aug-30 20:33N 37°58' E 023°35'0 0.0
2015-Aug-29 07:33N 37°58' E 023°35'0 0.0
2015-Aug-29 06:34N 37°58' E 023°35'0 0.4
2015-Aug-29 05:33N 37°57' E 023°34'4 4.4
2015-Aug-29 04:33N 38°02' E 023°36'0 0.1
2015-Aug-29 03:33N 38°02' E 023°36'0 0.0
2015-Aug-29 02:33N 38°02' E 023°36'0 0.0
2015-Aug-29 01:33N 38°02' E 023°36'0 0.0
2015-Aug-29 00:33N 38°02' E 023°36'0 0.0
2015-Aug-28 23:33N 38°02' E 023°36'0 0.0
2015-Aug-28 22:33N 38°02' E 023°36'0 0.0
2015-Aug-28 21:33N 38°02' E 023°36'1 0.9
2015-Aug-28 20:33N 38°01' E 023°35'0 0.0
2015-Aug-28 19:31N 38°01' E 023°35'0 0.0
2015-Aug-28 18:33N 38°01' E 023°35'0 0.0
2015-Aug-28 17:33N 38°01' E 023°35'0 0.0
2015-Aug-28 16:33N 38°01' E 023°35'4 4.3
2015-Aug-28 15:33N 37°57' E 023°34'7 6.6
2015-Aug-28 14:34N 37°52' E 023°30'0 0.2
2015-Aug-28 13:33N 37°51' E 023°30'0 0.0
2015-Aug-28 12:34N 37°51' E 023°30'0 0.0
2015-Aug-28 11:33N 37°51' E 023°30'0 0.0
2015-Aug-28 10:33N 37°51' E 023°30'0 0.0
2015-Aug-28 09:33N 37°51' E 023°30'0 0.0
2015-Aug-28 08:34N 37°51' E 023°30'0 0.0
2015-Aug-28 07:34N 37°51' E 023°30'0 0.0
2015-Aug-28 06:34N 37°51' E 023°30'0 0.0
2015-Aug-28 05:33N 37°51' E 023°30'0 0.0
2015-Aug-28 04:34N 37°51' E 023°30'4 4.1
2015-Aug-28 03:33N 37°55' E 023°33'3 0.1
2015-Aug-26 16:33N 37°58' E 023°35'3 3.0
2015-Aug-26 15:33N 37°56' E 023°38'0 0.0
2015-Aug-26 14:33N 37°56' E 023°38'0 0.0
2015-Aug-26 13:33N 37°56' E 023°38'3 3.0
2015-Aug-26 12:33N 37°58' E 023°35'0 0.0
2015-Aug-26 11:33N 37°58' E 023°35'3 3.4
2015-Aug-26 10:33N 38°01' E 023°34'1 1.1
2015-Aug-26 09:33N 38°02' E 023°36'0 0.0
2015-Aug-26 08:33N 38°02' E 023°36'0 0.0
2015-Aug-26 05:33N 38°02' E 023°36'1 0.5
2015-Aug-26 04:33N 38°02' E 023°35'0 0.5
2015-Aug-26 03:33N 38°01' E 023°34'0 0.0
2015-Aug-26 02:33N 38°01' E 023°34'0 0.0
2015-Aug-26 01:33N 38°01' E 023°34'0 0.0
2015-Aug-26 00:33N 38°01' E 023°34'0 0.0
2015-Aug-25 23:33N 38°01' E 023°34'0 0.0
2015-Aug-25 22:33N 38°01' E 023°35'0 0.0
2015-Aug-25 21:34N 38°01' E 023°35'0 0.0
2015-Aug-25 20:33N 38°01' E 023°35'0 0.0
2015-Aug-25 19:33N 38°01' E 023°35'0 0.0
2015-Aug-25 18:33N 38°01' E 023°34'4 4.2
2015-Aug-25 17:33N 37°57' E 023°34'1 0.1
2015-Aug-25 12:14N 37°58' E 023°35'  

Dump ship's entire track history